Time;durP1;ratioP1;P1;durP2;ratioP2;P2;SDS_P1;SDS_P2;PMS_P1;PMS_P2;Temp;Humidity;BMP_temperature;BMP_pressure;BME280_temperature;BME280_humidity;BME280_pressure;Samples;Min_cycle;Max_cycle;Signal;HPM_P1;HPM_P2
2024/02/20 00:02:05;;;;;;;8.15;5.82;;;10.20;99.90;;;;;;5018945;28;20222;-73
2024/02/20 00:04:32;;;;;;;6.80;4.63;;;10.20;99.90;;;;;;5014615;28;21144;-73
2024/02/20 00:06:59;;;;;;;4.13;3.63;;;10.20;99.90;;;;;;5022622;28;21016;-73
2024/02/20 00:09:26;;;;;;;4.32;3.28;;;10.20;99.90;;;;;;5012488;28;20306;-73
2024/02/20 00:11:53;;;;;;;3.00;2.63;;;10.20;99.90;;;;;;5017889;28;20255;-73
2024/02/20 00:14:22;;;;;;;2.50;2.30;;;10.20;99.90;;;;;;5020389;28;20223;-73
2024/02/20 00:16:49;;;;;;;2.40;2.20;;;10.10;99.90;;;;;;5019804;28;20270;-73
2024/02/20 00:19:17;;;;;;;2.08;1.95;;;10.10;99.90;;;;;;5018771;28;20219;-73
2024/02/20 00:21:44;;;;;;;1.80;1.70;;;10.10;99.90;;;;;;5015892;28;20223;-73
2024/02/20 00:24:11;;;;;;;1.80;1.70;;;10.10;99.90;;;;;;5016524;28;20920;-73
2024/02/20 00:26:38;;;;;;;1.55;1.50;;;10.10;99.90;;;;;;5019892;28;20223;-73
2024/02/20 00:29:05;;;;;;;1.52;1.48;;;10.10;99.90;;;;;;5018854;28;20250;-73
2024/02/20 00:31:36;;;;;;;1.30;1.30;;;10.00;99.90;;;;;;5015411;28;20301;-73
2024/02/20 00:34:03;;;;;;;1.55;1.48;;;10.00;99.90;;;;;;5017453;28;20231;-73
2024/02/20 00:36:30;;;;;;;1.65;1.55;;;10.00;99.90;;;;;;5016669;28;20243;-73
2024/02/20 00:38:57;;;;;;;1.25;1.25;;;10.00;99.90;;;;;;5014487;28;20322;-73
2024/02/20 00:41:26;;;;;;;1.48;1.48;;;10.00;99.90;;;;;;5019779;28;20848;-73
2024/02/20 00:43:53;;;;;;;1.55;1.45;;;10.00;99.90;;;;;;5018195;28;20701;-73
2024/02/20 00:46:21;;;;;;;1.20;1.20;;;10.00;99.90;;;;;;5019193;28;20571;-73
2024/02/20 00:48:50;;;;;;;1.13;1.13;;;10.00;99.90;;;;;;5017567;28;20332;-73
2024/02/20 00:51:19;;;;;;;1.50;1.50;;;10.00;99.90;;;;;;5015776;28;20244;-74
2024/02/20 00:53:47;;;;;;;1.35;1.35;;;10.00;99.90;;;;;;5019170;28;20222;-74
2024/02/20 00:56:15;;;;;;;1.15;1.15;;;10.10;99.90;;;;;;5017951;28;20800;-74
2024/02/20 00:58:43;;;;;;;1.55;1.55;;;10.00;99.90;;;;;;5017900;28;20204;-74
2024/02/20 01:01:12;;;;;;;1.98;1.88;;;10.10;99.90;;;;;;5022914;28;20684;-73
2024/02/20 01:03:39;;;;;;;1.90;1.80;;;10.10;99.90;;;;;;5020464;28;20235;-74
2024/02/20 01:06:08;;;;;;;1.60;1.50;;;10.10;99.90;;;;;;5026663;28;20255;-74
2024/02/20 01:08:35;;;;;;;1.60;1.50;;;10.20;99.90;;;;;;5022979;28;20236;-74
2024/02/20 01:11:03;;;;;;;1.40;1.40;;;10.20;99.90;;;;;;5025874;28;20269;-74
2024/02/20 01:13:30;;;;;;;1.35;1.35;;;10.20;99.90;;;;;;5022535;28;20201;-73
2024/02/20 01:15:57;;;;;;;1.20;1.20;;;10.10;99.90;;;;;;5016317;28;20289;-74
2024/02/20 01:18:24;;;;;;;1.30;1.30;;;10.10;99.90;;;;;;5017357;28;20791;-74
2024/02/20 01:20:51;;;;;;;1.20;1.20;;;10.00;99.90;;;;;;5015658;28;20247;-74
2024/02/20 01:23:19;;;;;;;1.40;1.40;;;10.00;99.90;;;;;;5012149;28;20207;-74
2024/02/20 01:25:46;;;;;;;1.30;1.30;;;10.00;99.90;;;;;;5013923;28;22064;-74
2024/02/20 01:28:13;;;;;;;1.45;1.40;;;10.00;99.90;;;;;;5019976;28;20214;-74
2024/02/20 01:30:41;;;;;;;1.38;1.27;;;10.00;99.90;;;;;;5014672;28;20244;-74
2024/02/20 01:33:08;;;;;;;1.20;1.20;;;10.00;99.90;;;;;;5020598;28;20273;-72
2024/02/20 01:35:36;;;;;;;1.30;1.30;;;9.90;99.90;;;;;;5016143;28;20235;-73
2024/02/20 01:38:03;;;;;;;1.30;1.20;;;10.00;99.90;;;;;;5019686;28;20221;-73
2024/02/20 01:40:31;;;;;;;1.25;1.25;;;9.90;99.90;;;;;;5021532;28;20300;-72
2024/02/20 01:42:59;;;;;;;1.40;1.40;;;9.90;99.90;;;;;;5014442;28;21151;-73
2024/02/20 01:45:28;;;;;;;1.35;1.35;;;9.90;99.90;;;;;;5020935;28;20231;-73
2024/02/20 01:47:55;;;;;;;1.20;1.20;;;10.00;99.90;;;;;;5021032;28;20725;-73
2024/02/20 01:50:23;;;;;;;1.30;1.30;;;10.00;99.90;;;;;;5017382;28;20231;-73
2024/02/20 01:52:50;;;;;;;1.27;1.27;;;10.00;99.90;;;;;;5018676;28;20239;-73
2024/02/20 01:55:21;;;;;;;1.30;1.30;;;10.00;99.90;;;;;;5021916;28;20232;-73
2024/02/20 01:57:49;;;;;;;1.30;1.30;;;9.90;99.90;;;;;;5020286;28;20205;-73
2024/02/20 02:00:17;;;;;;;1.20;1.20;;;9.90;99.90;;;;;;5021748;28;20248;-73
2024/02/20 02:02:44;;;;;;;1.30;1.30;;;9.90;99.90;;;;;;5007207;28;20281;-73
2024/02/20 02:05:12;;;;;;;1.48;1.48;;;10.00;99.90;;;;;;5021468;28;20227;-73
2024/02/20 02:07:39;;;;;;;1.30;1.30;;;10.00;99.90;;;;;;5020620;28;20204;-73
2024/02/20 02:10:07;;;;;;;1.50;1.50;;;10.00;99.90;;;;;;5017112;28;20254;-73
2024/02/20 02:12:35;;;;;;;1.52;1.42;;;10.00;99.90;;;;;;5023784;28;20208;-72
2024/02/20 02:15:04;;;;;;;1.10;1.10;;;10.00;99.90;;;;;;5020399;28;20649;-73
2024/02/20 02:17:31;;;;;;;1.30;1.30;;;9.90;99.90;;;;;;5021319;28;20203;-72
2024/02/20 02:19:58;;;;;;;1.30;1.30;;;9.90;99.90;;;;;;5016619;28;20219;-73
2024/02/20 02:22:26;;;;;;;1.30;1.30;;;9.90;99.90;;;;;;5021579;28;20203;-73
2024/02/20 02:24:53;;;;;;;1.17;1.17;;;9.90;99.90;;;;;;5019383;28;20290;-73
2024/02/20 02:27:21;;;;;;;1.48;1.40;;;9.80;99.90;;;;;;5020823;28;20940;-73
2024/02/20 02:29:48;;;;;;;1.58;1.48;;;9.80;99.90;;;;;;5020582;28;20341;-73
2024/02/20 02:32:15;;;;;;;1.30;1.30;;;9.80;99.90;;;;;;5022701;28;20267;-73
2024/02/20 02:34:43;;;;;;;1.13;1.13;;;9.80;99.90;;;;;;5020260;28;20247;-73
2024/02/20 02:37:11;;;;;;;1.52;1.42;;;9.80;99.90;;;;;;5020213;28;20223;-73
2024/02/20 02:39:38;;;;;;;1.40;1.40;;;9.70;99.90;;;;;;5017205;28;20220;-73
2024/02/20 02:42:06;;;;;;;1.20;1.20;;;9.70;99.90;;;;;;5018790;28;20231;-74
2024/02/20 02:44:36;;;;;;;1.38;1.30;;;9.70;99.90;;;;;;5003134;28;20247;-74
2024/02/20 02:47:03;;;;;;;1.40;1.40;;;9.70;99.90;;;;;;5021835;28;20224;-74
2024/02/20 02:49:30;;;;;;;1.40;1.40;;;9.70;99.90;;;;;;5020412;28;20216;-74
2024/02/20 02:51:57;;;;;;;1.60;1.50;;;9.60;99.90;;;;;;5021993;28;20814;-73
2024/02/20 02:54:25;;;;;;;1.40;1.40;;;9.60;99.90;;;;;;5020177;28;20255;-74
2024/02/20 02:56:52;;;;;;;1.23;1.23;;;9.60;99.90;;;;;;5017375;28;20228;-74
2024/02/20 02:59:19;;;;;;;1.40;1.40;;;9.60;99.90;;;;;;5018632;28;20229;-73
2024/02/20 03:01:49;;;;;;;1.40;1.40;;;9.50;99.90;;;;;;5018871;28;20251;-73
2024/02/20 03:04:16;;;;;;;1.48;1.48;;;9.50;99.90;;;;;;5019334;28;20228;-73
2024/02/20 03:06:42;;;;;;;1.33;1.33;;;9.50;99.90;;;;;;5019919;28;20319;-73
2024/02/20 03:09:12;;;;;;;1.30;1.30;;;9.50;99.90;;;;;;5019599;28;20251;-73
2024/02/20 03:11:39;;;;;;;1.77;1.40;;;9.50;99.90;;;;;;5019251;28;20211;-73
2024/02/20 03:14:06;;;;;;;1.30;1.30;;;9.50;99.90;;;;;;5019218;28;20248;-73
2024/02/20 03:16:33;;;;;;;1.40;1.40;;;9.50;99.90;;;;;;5018895;28;20223;-73
2024/02/20 03:19:03;;;;;;;1.17;1.17;;;9.50;99.90;;;;;;5020511;28;20219;-73
2024/02/20 03:21:31;;;;;;;1.20;1.20;;;9.50;99.90;;;;;;5021501;28;20230;-73
2024/02/20 03:23:58;;;;;;;1.40;1.40;;;9.60;99.90;;;;;;5016692;28;20570;-73
2024/02/20 03:26:26;;;;;;;1.35;1.35;;;9.60;99.90;;;;;;5022066;28;20238;-73
2024/02/20 03:28:53;;;;;;;1.27;1.27;;;9.50;99.90;;;;;;5021960;28;20223;-73
2024/02/20 03:31:20;;;;;;;1.55;1.55;;;9.50;99.90;;;;;;5016235;28;20239;-74
2024/02/20 03:33:48;;;;;;;1.30;1.30;;;9.40;99.90;;;;;;5017363;28;20230;-74
2024/02/20 03:36:16;;;;;;;1.30;1.30;;;9.40;99.90;;;;;;5016025;28;20308;-74
2024/02/20 03:38:44;;;;;;;1.40;1.40;;;9.40;99.90;;;;;;5017436;28;20196;-74
2024/02/20 03:41:11;;;;;;;1.40;1.40;;;9.40;99.90;;;;;;5017913;28;20315;-73
2024/02/20 03:43:38;;;;;;;1.40;1.40;;;9.40;99.90;;;;;;5019385;28;20674;-73
2024/02/20 03:46:06;;;;;;;1.25;1.25;;;9.40;99.90;;;;;;5017284;28;20219;-73
2024/02/20 03:48:33;;;;;;;1.40;1.40;;;9.40;99.90;;;;;;5018312;28;20200;-73
2024/02/20 03:51:00;;;;;;;1.40;1.40;;;9.40;99.90;;;;;;5016279;28;20713;-73
2024/02/20 03:53:29;;;;;;;1.40;1.40;;;9.40;99.90;;;;;;5022508;28;20200;-73
2024/02/20 03:55:56;;;;;;;1.50;1.40;;;9.30;99.90;;;;;;5019991;28;20262;-73
2024/02/20 03:58:23;;;;;;;1.38;1.38;;;9.30;99.90;;;;;;5022987;28;20276;-73
2024/02/20 04:00:50;;;;;;;1.50;1.50;;;9.30;99.90;;;;;;5018017;28;21193;-73
2024/02/20 04:03:17;;;;;;;1.75;1.40;;;9.30;99.90;;;;;;5019278;28;20224;-73
2024/02/20 04:05:44;;;;;;;1.40;1.40;;;9.30;99.90;;;;;;5017653;28;20228;-73
2024/02/20 04:08:12;;;;;;;1.45;1.45;;;9.40;99.90;;;;;;5019992;28;20666;-72
2024/02/20 04:10:41;;;;;;;1.30;1.30;;;9.30;99.90;;;;;;5012413;28;20306;-73
2024/02/20 04:13:09;;;;;;;1.35;1.35;;;9.40;99.90;;;;;;5018526;28;20601;-73
2024/02/20 04:15:37;;;;;;;1.30;1.30;;;9.40;99.90;;;;;;5018809;28;20319;-73
2024/02/20 04:18:04;;;;;;;1.20;1.20;;;9.30;99.90;;;;;;5018524;28;20210;-73
2024/02/20 04:20:31;;;;;;;1.50;1.40;;;9.30;99.90;;;;;;5025878;28;20587;-73
2024/02/20 04:23:01;;;;;;;1.40;1.40;;;9.30;99.90;;;;;;5014162;28;20251;-73
2024/02/20 04:25:28;;;;;;;1.50;1.50;;;9.30;99.90;;;;;;5015074;28;20224;-73
2024/02/20 04:27:58;;;;;;;1.55;1.55;;;9.30;99.90;;;;;;5025990;28;20262;-73
2024/02/20 04:30:24;;;;;;;1.38;1.38;;;9.30;99.90;;;;;;5018937;28;20301;-72
2024/02/20 04:32:51;;;;;;;1.55;1.55;;;9.30;99.90;;;;;;5016446;28;20231;-73
2024/02/20 04:35:18;;;;;;;1.27;1.27;;;9.30;99.90;;;;;;5014089;28;20248;-73
2024/02/20 04:37:47;;;;;;;1.58;1.50;;;9.30;99.90;;;;;;5017783;28;20239;-72
2024/02/20 04:40:16;;;;;;;1.48;1.48;;;9.30;99.90;;;;;;5016370;28;20297;-72
2024/02/20 04:42:44;;;;;;;1.50;1.50;;;9.30;99.90;;;;;;5017084;28;20212;-72
2024/02/20 04:45:14;;;;;;;1.50;1.50;;;9.30;99.90;;;;;;5014778;28;20227;-72
2024/02/20 04:47:40;;;;;;;1.60;1.60;;;9.30;99.90;;;;;;5019393;28;20200;-73
2024/02/20 04:50:09;;;;;;;1.52;1.48;;;9.30;99.90;;;;;;5021077;28;20316;-73
2024/02/20 04:52:36;;;;;;;1.42;1.42;;;9.30;99.90;;;;;;5022784;28;21269;-73
2024/02/20 04:55:03;;;;;;;1.50;1.40;;;9.30;99.90;;;;;;5018465;28;20301;-73
2024/02/20 04:57:30;;;;;;;1.80;1.70;;;9.20;99.90;;;;;;5018803;28;20231;-73
2024/02/20 04:59:58;;;;;;;1.30;1.30;;;9.20;99.90;;;;;;5020064;28;20239;-73
2024/02/20 05:02:26;;;;;;;1.60;1.60;;;9.20;99.90;;;;;;5016213;28;20693;-73
2024/02/20 05:04:54;;;;;;;1.55;1.52;;;9.10;99.90;;;;;;5019303;28;20572;-74
2024/02/20 05:07:20;;;;;;;1.55;1.50;;;9.10;99.90;;;;;;5020679;28;20294;-73
2024/02/20 05:09:48;;;;;;;1.67;1.58;;;9.00;99.90;;;;;;5016905;28;20277;-73
2024/02/20 05:12:16;;;;;;;1.40;1.40;;;8.90;99.90;;;;;;5023354;28;20283;-73
2024/02/20 05:14:43;;;;;;;1.85;1.75;;;8.90;99.90;;;;;;5020632;28;20299;-73
2024/02/20 05:17:10;;;;;;;1.88;1.77;;;8.80;99.90;;;;;;5021530;28;20258;-73
2024/02/20 05:19:39;;;;;;;1.50;1.50;;;8.80;99.90;;;;;;5022255;28;20534;-73
2024/02/20 05:22:06;;;;;;;1.55;1.55;;;8.70;99.90;;;;;;5019401;28;20290;-73
2024/02/20 05:24:34;;;;;;;1.73;1.63;;;8.70;99.90;;;;;;5018997;28;20231;-73
2024/02/20 05:27:02;;;;;;;1.80;1.70;;;8.70;99.90;;;;;;5020267;28;20224;-73
2024/02/20 05:29:30;;;;;;;1.83;1.73;;;8.60;99.90;;;;;;5021632;28;20625;-73
2024/02/20 05:31:58;;;;;;;1.60;1.50;;;8.60;99.90;;;;;;5016611;28;20215;-72
2024/02/20 05:34:25;;;;;;;1.50;1.50;;;8.50;99.90;;;;;;5022932;28;20933;-72
2024/02/20 05:36:53;;;;;;;1.40;1.40;;;8.50;99.90;;;;;;5018854;28;20333;-72
2024/02/20 05:39:20;;;;;;;1.70;1.70;;;8.50;99.90;;;;;;5022383;28;20247;-72
2024/02/20 05:41:48;;;;;;;1.50;1.50;;;8.40;99.90;;;;;;5024608;28;20259;-72
2024/02/20 05:44:15;;;;;;;1.60;1.55;;;8.40;99.90;;;;;;5019590;28;20242;-72
2024/02/20 05:46:42;;;;;;;1.60;1.60;;;8.30;99.90;;;;;;5023165;28;20309;-72
2024/02/20 05:49:10;;;;;;;1.65;1.65;;;8.30;99.90;;;;;;5019209;28;20228;-72
2024/02/20 05:51:37;;;;;;;1.63;1.60;;;8.20;99.90;;;;;;5018624;28;20215;-72
2024/02/20 05:54:06;;;;;;;1.80;1.80;;;8.20;99.90;;;;;;5025942;28;20247;-72
2024/02/20 05:56:33;;;;;;;1.85;1.85;;;8.20;99.90;;;;;;5023492;28;20226;-72
2024/02/20 05:59:00;;;;;;;1.50;1.50;;;8.20;99.90;;;;;;5023595;28;20223;-73
2024/02/20 06:01:27;;;;;;;1.70;1.63;;;8.20;99.90;;;;;;5023043;28;20278;-73
2024/02/20 06:03:54;;;;;;;1.60;1.60;;;8.20;99.90;;;;;;5015931;28;20738;-72
2024/02/20 06:06:21;;;;;;;1.80;1.77;;;8.20;99.90;;;;;;5025849;28;20218;-73
2024/02/20 06:08:50;;;;;;;1.90;1.80;;;8.30;99.90;;;;;;5021621;28;20915;-73
2024/02/20 06:11:21;;;;;;;2.15;2.05;;;8.30;99.90;;;;;;5019401;28;20608;-73
2024/02/20 06:13:48;;;;;;;2.28;2.17;;;8.30;99.90;;;;;;5018766;28;20223;-72
2024/02/20 06:16:15;;;;;;;2.20;2.10;;;8.30;99.90;;;;;;5019735;28;20230;-72
2024/02/20 06:18:43;;;;;;;3.13;2.85;;;8.30;99.90;;;;;;5019190;28;20232;-72
2024/02/20 06:21:10;;;;;;;3.30;3.00;;;8.30;99.90;;;;;;5013425;28;20254;-73
2024/02/20 06:23:38;;;;;;;3.30;3.00;;;8.30;99.90;;;;;;5015958;28;20500;-72
2024/02/20 06:26:06;;;;;;;4.07;3.38;;;8.30;99.90;;;;;;5020327;28;20228;-72
2024/02/20 06:28:34;;;;;;;4.43;3.30;;;8.30;99.90;;;;;;5021724;28;20240;-73
2024/02/20 06:31:03;;;;;;;4.05;3.65;;;8.30;99.90;;;;;;5019489;28;20247;-72
2024/02/20 06:33:30;;;;;;;3.40;3.10;;;8.30;99.90;;;;;;5021782;28;20196;-73
2024/02/20 06:35:57;;;;;;;2.90;2.70;;;8.40;99.90;;;;;;5019290;28;20223;-72
2024/02/20 06:38:27;;;;;;;2.80;2.60;;;8.30;99.90;;;;;;5018525;28;20239;-73
2024/02/20 06:40:54;;;;;;;2.50;2.30;;;8.40;99.90;;;;;;5018914;28;20583;-72
2024/02/20 06:43:21;;;;;;;2.58;2.38;;;8.40;99.90;;;;;;5021374;28;20324;-72
2024/02/20 06:45:50;;;;;;;2.25;2.15;;;8.40;99.90;;;;;;5013278;28;20223;-72
2024/02/20 06:48:17;;;;;;;2.30;2.20;;;8.40;99.90;;;;;;5021412;28;20196;-72
2024/02/20 06:50:44;;;;;;;1.90;1.80;;;8.40;99.90;;;;;;5015620;28;20250;-72
2024/02/20 06:53:11;;;;;;;1.80;1.70;;;8.50;99.90;;;;;;5025171;28;20305;-72
2024/02/20 06:55:38;;;;;;;1.80;1.77;;;8.50;99.90;;;;;;5021468;28;20301;-72
2024/02/20 06:58:05;;;;;;;1.90;1.80;;;8.50;99.90;;;;;;5015062;28;20228;-72
2024/02/20 07:00:32;;;;;;;1.52;1.52;;;8.60;99.90;;;;;;5021025;28;20243;-72
2024/02/20 07:03:01;;;;;;;1.52;1.52;;;8.70;99.90;;;;;;5020660;28;20932;-72
2024/02/20 07:05:28;;;;;;;1.70;1.70;;;8.70;99.90;;;;;;5015118;28;20278;-74
2024/02/20 07:07:56;;;;;;;1.70;1.60;;;8.70;99.90;;;;;;5017104;28;20282;-74
2024/02/20 07:10:22;;;;;;;1.83;1.75;;;8.80;99.90;;;;;;5018627;28;20237;-74
2024/02/20 07:12:49;;;;;;;1.58;1.55;;;8.80;99.90;;;;;;5018210;28;20290;-75
2024/02/20 07:15:16;;;;;;;1.83;1.73;;;8.80;99.90;;;;;;5018700;28;20321;-72
2024/02/20 07:17:43;;;;;;;1.90;1.80;;;8.90;99.90;;;;;;5017654;28;20306;-73
2024/02/20 07:20:13;;;;;;;1.60;1.60;;;9.00;99.90;;;;;;5023971;28;20255;-74
2024/02/20 07:22:40;;;;;;;1.70;1.70;;;9.00;99.90;;;;;;5019950;28;20301;-73
2024/02/20 07:25:08;;;;;;;1.90;1.80;;;9.10;99.90;;;;;;5017774;28;20263;-73
2024/02/20 07:27:36;;;;;;;1.88;1.77;;;9.20;99.90;;;;;;5023756;28;20207;-73
2024/02/20 07:30:04;;;;;;;1.90;1.80;;;9.60;99.90;;;;;;5022109;28;20786;-73
2024/02/20 07:32:31;;;;;;;1.90;1.80;;;10.50;99.90;;;;;;5019448;28;20203;-72
2024/02/20 07:34:58;;;;;;;1.77;1.70;;;11.00;99.90;;;;;;5020147;28;20314;-73
2024/02/20 07:37:26;;;;;;;2.10;2.00;;;11.50;99.90;;;;;;5017745;28;20254;-72
2024/02/20 07:39:53;;;;;;;2.08;1.98;;;12.40;99.90;;;;;;5020057;28;20243;-73
2024/02/20 07:42:20;;;;;;;1.85;1.75;;;13.30;99.90;;;;;;5017246;28;20246;-73
2024/02/20 07:44:47;;;;;;;1.73;1.60;;;14.00;99.90;;;;;;5019768;28;20788;-74
2024/02/20 07:47:14;;;;;;;1.80;1.70;;;14.60;99.90;;;;;;5021664;28;20293;-74
2024/02/20 07:49:41;;;;;;;1.80;1.70;;;15.20;99.90;;;;;;5021054;28;20246;-74
2024/02/20 07:52:09;;;;;;;2.28;1.98;;;15.70;99.90;;;;;;5018267;28;20301;-74
2024/02/20 07:54:37;;;;;;;2.13;2.03;;;16.00;99.90;;;;;;5017322;28;20302;-74
2024/02/20 07:57:04;;;;;;;2.35;2.25;;;16.30;99.90;;;;;;5021867;28;20215;-73
2024/02/20 07:59:31;;;;;;;2.28;2.08;;;16.50;99.90;;;;;;5016215;28;20251;-74
2024/02/20 08:02:02;;;;;;;2.40;2.25;;;16.40;99.90;;;;;;5020205;28;20317;-74
2024/02/20 08:04:29;;;;;;;2.47;2.28;;;16.30;99.90;;;;;;5013195;28;20266;-74
2024/02/20 08:06:57;;;;;;;2.47;2.13;;;16.40;99.90;;;;;;5019543;28;20247;-74
2024/02/20 08:09:24;;;;;;;2.20;2.10;;;16.50;99.90;;;;;;5008750;28;20224;-74
2024/02/20 08:11:52;;;;;;;3.30;2.22;;;16.60;99.90;;;;;;5013758;28;20227;-74
2024/02/20 08:14:19;;;;;;;1.98;1.77;;;16.80;99.90;;;;;;5013776;28;21000;-74
2024/02/20 08:16:48;;;;;;;2.22;1.70;;;17.10;99.90;;;;;;5012089;28;20240;-74
2024/02/20 08:19:15;;;;;;;1.70;1.60;;;17.50;99.90;;;;;;5012462;28;20224;-74
2024/02/20 08:21:42;;;;;;;1.85;1.75;;;17.80;99.90;;;;;;5015267;28;20224;-74
2024/02/20 08:24:09;;;;;;;2.65;2.20;;;17.90;99.90;;;;;;5010258;28;20285;-74
2024/02/20 08:26:37;;;;;;;2.45;2.10;;;17.80;99.90;;;;;;5011619;28;20302;-74
2024/02/20 08:29:05;;;;;;;2.05;1.95;;;17.30;99.90;;;;;;5015577;28;20334;-75
2024/02/20 08:31:32;;;;;;;2.72;2.20;;;17.00;99.90;;;;;;5018518;28;20242;-75
2024/02/20 08:33:59;;;;;;;4.22;2.05;;;17.40;99.90;;;;;;5009534;28;20234;-74
2024/02/20 08:36:26;;;;;;;2.13;1.88;;;17.30;99.90;;;;;;5013661;28;20254;-75
2024/02/20 08:38:53;;;;;;;2.00;1.90;;;17.10;99.90;;;;;;5014419;28;20726;-75
2024/02/20 08:41:20;;;;;;;1.80;1.70;;;17.00;99.90;;;;;;5015141;28;20250;-74
2024/02/20 08:43:50;;;;;;;1.58;1.48;;;17.30;99.90;;;;;;5012851;28;20277;-73
2024/02/20 08:46:19;;;;;;;2.17;1.88;;;17.90;99.90;;;;;;5014068;28;20227;-74
2024/02/20 08:48:46;;;;;;;1.55;1.45;;;18.50;99.90;;;;;;5016816;28;20223;-72
2024/02/20 08:51:15;;;;;;;2.10;1.40;;;18.80;99.90;;;;;;5014508;28;20306;-72
2024/02/20 08:53:43;;;;;;;2.03;1.73;;;18.90;99.90;;;;;;5012216;28;20196;-72
2024/02/20 08:56:10;;;;;;;3.90;1.73;;;18.50;99.90;;;;;;5010808;28;20223;-72
2024/02/20 08:58:37;;;;;;;1.60;1.50;;;18.50;99.90;;;;;;5015903;28;20937;-73
2024/02/20 09:01:05;;;;;;;2.15;1.50;;;18.40;99.90;;;;;;5013358;28;20229;-72
2024/02/20 09:03:34;;;;;;;2.97;1.42;;;18.40;99.90;;;;;;5010305;28;20255;-72
2024/02/20 09:06:02;;;;;;;1.65;1.55;;;18.40;99.90;;;;;;5017652;28;20220;-72
2024/02/20 09:08:29;;;;;;;2.05;1.50;;;18.30;99.90;;;;;;5012167;28;20206;-72
2024/02/20 09:10:58;;;;;;;1.35;1.25;;;18.50;99.90;;;;;;5035900;28;20288;-73
2024/02/20 09:13:25;;;;;;;1.08;1.00;;;18.60;99.90;;;;;;5014264;28;20196;-72
2024/02/20 09:15:53;;;;;;;3.35;1.45;;;18.50;99.90;;;;;;5012973;28;20373;-72
2024/02/20 09:18:20;;;;;;;1.95;1.77;;;18.10;99.90;;;;;;5033076;28;20223;-72
2024/02/20 09:20:48;;;;;;;1.35;1.23;;;17.70;99.90;;;;;;5035001;28;20317;-72
2024/02/20 09:23:15;;;;;;;1.58;1.48;;;17.60;99.90;;;;;;5038191;28;20243;-72
2024/02/20 09:25:43;;;;;;;1.60;1.50;;;17.60;99.90;;;;;;5036552;28;21170;-73
2024/02/20 09:28:11;;;;;;;2.22;1.58;;;17.90;99.90;;;;;;5016450;28;20408;-72
2024/02/20 09:30:38;;;;;;;2.33;1.63;;;18.30;99.90;;;;;;5034456;28;20314;-72
2024/02/20 09:33:06;;;;;;;1.85;1.60;;;18.20;99.90;;;;;;5035901;28;20342;-72
2024/02/20 09:35:35;;;;;;;1.88;1.77;;;18.10;99.90;;;;;;5032283;28;20484;-73
2024/02/20 09:38:03;;;;;;;2.67;1.65;;;18.20;99.90;;;;;;5001478;28;20210;-73
2024/02/20 09:40:30;;;;;;;2.03;1.65;;;18.40;99.90;;;;;;5030625;28;20761;-74
2024/02/20 09:43:01;;;;;;;1.58;1.48;;;18.60;99.90;;;;;;5033440;28;20254;-74
2024/02/20 09:45:28;;;;;;;2.47;1.23;;;18.80;99.90;;;;;;5027436;28;20259;-74
2024/02/20 09:47:56;;;;;;;1.30;1.20;;;18.90;99.90;;;;;;5013464;28;20293;-74
2024/02/20 09:50:23;;;;;;;1.58;1.33;;;18.90;99.90;;;;;;5014289;28;20310;-73
2024/02/20 09:52:53;;;;;;;1.48;1.30;;;19.00;99.90;;;;;;5013626;28;20235;-75
2024/02/20 09:55:24;;;;;;;2.40;1.35;;;19.30;99.90;;;;;;5009251;28;20234;-76
2024/02/20 09:57:51;;;;;;;1.27;1.20;;;19.50;99.90;;;;;;5011057;28;20298;-77
2024/02/20 10:00:20;;;;;;;1.33;1.20;;;19.60;99.90;;;;;;5026070;28;20225;-75
2024/02/20 10:02:47;;;;;;;1.10;1.10;;;19.50;99.90;;;;;;5033609;28;20223;-75
2024/02/20 10:05:16;;;;;;;1.60;1.10;;;19.80;99.90;;;;;;5040313;28;20223;-76
2024/02/20 10:07:43;;;;;;;1.30;1.20;;;20.10;99.90;;;;;;5035671;28;20298;-76
2024/02/20 10:10:12;;;;;;;2.60;1.17;;;20.30;99.10;;;;;;5037026;28;20275;-73
2024/02/20 10:12:40;;;;;;;2.08;1.10;;;20.40;97.50;;;;;;5037522;28;20207;-74
2024/02/20 10:15:08;;;;;;;1.20;1.10;;;20.80;98.10;;;;;;5034430;28;20251;-74
2024/02/20 10:17:36;;;;;;;3.00;1.08;;;20.50;97.70;;;;;;5039014;28;20633;-74
2024/02/20 10:20:11;;;;;;;1.30;1.17;;;20.60;98.10;;;;;;5037995;28;20230;-74
2024/02/20 10:22:40;;;;;;;0.93;0.93;;;20.80;97.00;;;;;;5043097;28;20782;-74
2024/02/20 10:25:10;;;;;;;1.00;1.00;;;21.00;96.80;;;;;;5032956;28;20870;-75
2024/02/20 10:27:37;;;;;;;0.90;0.90;;;20.80;96.00;;;;;;5036623;28;20258;-74
2024/02/20 10:30:08;;;;;;;2.95;1.10;;;20.60;95.70;;;;;;5025485;28;20818;-75
2024/02/20 10:32:36;;;;;;;1.48;0.90;;;20.60;95.00;;;;;;5014363;28;20205;-73
2024/02/20 10:35:05;;;;;;;1.98;1.13;;;20.20;94.50;;;;;;5015227;28;20310;-74
2024/02/20 10:37:32;;;;;;;0.90;0.90;;;20.20;95.80;;;;;;5014198;28;20193;-74
2024/02/20 10:40:06;;;;;;;1.50;1.00;;;20.30;95.50;;;;;;5026608;28;20347;-74
2024/02/20 10:42:35;;;;;;;1.10;1.00;;;20.00;95.30;;;;;;5040302;28;20286;-73
2024/02/20 10:45:07;;;;;;;1.08;1.05;;;19.90;94.60;;;;;;5037419;28;20237;-71
2024/02/20 10:47:36;;;;;;;1.05;0.93;;;19.80;95.20;;;;;;5041779;28;20873;-71
2024/02/20 10:50:08;;;;;;;1.15;1.02;;;20.00;96.10;;;;;;5037154;28;20998;-73
2024/02/20 10:52:36;;;;;;;0.98;0.98;;;19.90;94.30;;;;;;5024912;28;20717;-73
2024/02/20 10:55:06;;;;;;;1.13;1.02;;;19.30;95.10;;;;;;5017770;28;20320;-73
2024/02/20 10:57:35;;;;;;;1.35;1.25;;;18.60;96.20;;;;;;5039452;28;20202;-73
2024/02/20 11:00:04;;;;;;;1.00;1.00;;;17.70;96.90;;;;;;5030779;28;20224;-73
2024/02/20 11:02:33;;;;;;;0.98;0.98;;;17.40;98.00;;;;;;5036689;28;20684;-73
2024/02/20 11:05:00;;;;;;;0.98;0.90;;;18.00;98.00;;;;;;5042989;28;20299;-74
2024/02/20 11:07:28;;;;;;;1.20;1.10;;;18.50;97.40;;;;;;5015037;28;20297;-73
2024/02/20 11:10:10;;;;;;;1.10;1.00;;;18.20;97.40;;;;;;5044210;28;20253;-74
2024/02/20 11:12:37;;;;;;;1.35;0.90;;;17.60;96.80;;;;;;5039119;28;20697;-73
2024/02/20 11:15:09;;;;;;;0.98;0.98;;;17.30;97.80;;;;;;5035919;28;20262;-73
2024/02/20 11:17:38;;;;;;;0.90;0.90;;;17.10;98.00;;;;;;5017520;28;21143;-74
2024/02/20 11:20:10;;;;;;;1.10;1.00;;;17.00;98.40;;;;;;5019132;28;20892;-73
2024/02/20 11:22:38;;;;;;;1.02;0.93;;;17.00;98.40;;;;;;5033313;28;20801;-74
2024/02/20 11:25:09;;;;;;;0.98;0.98;;;16.90;98.70;;;;;;5039844;28;20679;-74
2024/02/20 11:27:40;;;;;;;1.30;0.93;;;16.90;98.80;;;;;;5041747;28;20210;-73
2024/02/20 11:30:21;;;;;;;1.80;1.02;;;16.80;99.20;;;;;;5036209;28;20287;-73
2024/02/20 11:32:50;;;;;;;0.85;0.85;;;16.80;99.40;;;;;;5041264;28;20214;-73
2024/02/20 11:35:27;;;;;;;1.10;1.00;;;16.70;99.90;;;;;;5040813;28;20316;-77
2024/02/20 11:37:55;;;;;;;1.08;1.08;;;16.70;99.90;;;;;;5036075;28;20250;-74
2024/02/20 11:40:27;;;;;;;0.90;0.90;;;16.60;99.90;;;;;;5039465;28;20247;-74
2024/02/20 11:42:55;;;;;;;1.25;0.82;;;16.50;99.90;;;;;;5034299;28;20277;-73
2024/02/20 11:45:24;;;;;;;1.00;1.00;;;16.20;99.90;;;;;;5002355;28;20227;-73
2024/02/20 11:48:01;;;;;;;0.82;0.82;;;16.00;99.90;;;;;;5021969;28;20218;-73
2024/02/20 11:50:28;;;;;;;0.90;0.90;;;16.00;99.90;;;;;;5017452;28;20227;-73
2024/02/20 11:53:00;;;;;;;1.65;0.80;;;16.00;99.90;;;;;;4998173;28;20253;-72
2024/02/20 11:55:27;;;;;;;0.98;0.98;;;16.00;99.90;;;;;;5015342;28;20244;-73
2024/02/20 11:57:54;;;;;;;1.20;1.10;;;16.00;99.90;;;;;;5018141;28;20303;-73
2024/02/20 12:00:22;;;;;;;1.10;1.00;;;16.00;99.90;;;;;;5014526;28;20237;-73
2024/02/20 12:02:50;;;;;;;1.00;1.00;;;15.80;99.90;;;;;;5016866;28;20203;-73
2024/02/20 12:05:27;;;;;;;1.48;1.17;;;15.80;99.90;;;;;;5015810;28;20229;-73
2024/02/20 12:07:55;;;;;;;1.05;1.05;;;16.20;99.90;;;;;;5012049;28;20910;-73
2024/02/20 12:10:24;;;;;;;1.00;1.00;;;16.90;99.90;;;;;;4991402;28;20743;-73
2024/02/20 12:12:52;;;;;;;1.20;1.10;;;17.40;99.90;;;;;;5011316;28;20678;-73
2024/02/20 12:15:19;;;;;;;0.98;0.98;;;17.60;99.80;;;;;;5013626;28;20301;-73
2024/02/20 12:17:46;;;;;;;1.15;1.05;;;17.60;99.90;;;;;;5015476;28;20880;-73
2024/02/20 12:20:14;;;;;;;1.10;1.10;;;18.00;99.90;;;;;;5009978;28;20342;-73
2024/02/20 12:22:44;;;;;;;1.30;1.20;;;18.30;98.80;;;;;;4997463;28;20213;-73
2024/02/20 12:25:13;;;;;;;1.38;1.17;;;18.70;98.20;;;;;;5017942;28;20223;-73
2024/02/20 12:27:40;;;;;;;1.20;0.80;;;19.20;97.90;;;;;;5015397;28;20212;-73
2024/02/20 12:30:08;;;;;;;0.90;0.90;;;19.30;96.80;;;;;;5015128;28;20835;-73
2024/02/20 12:32:37;;;;;;;0.90;0.90;;;19.50;96.40;;;;;;5015459;28;20816;-74
2024/02/20 12:35:04;;;;;;;1.10;1.10;;;19.40;95.80;;;;;;5011289;28;20600;-73
2024/02/20 12:37:31;;;;;;;0.90;0.90;;;19.30;95.30;;;;;;4992956;28;20204;-72
2024/02/20 12:40:00;;;;;;;1.08;1.05;;;19.10;95.80;;;;;;5016519;28;20320;-73
2024/02/20 12:42:27;;;;;;;0.82;0.82;;;19.10;95.70;;;;;;5013264;28;20288;-73
2024/02/20 12:44:54;;;;;;;1.40;0.82;;;19.10;94.60;;;;;;5025143;28;20826;-72
2024/02/20 12:47:21;;;;;;;0.90;0.90;;;19.00;94.80;;;;;;5038460;28;20206;-73
2024/02/20 12:49:48;;;;;;;0.98;0.90;;;18.80;94.30;;;;;;5034004;28;20314;-73
2024/02/20 12:52:16;;;;;;;0.88;0.88;;;18.60;94.50;;;;;;5033925;28;20218;-73
2024/02/20 12:54:44;;;;;;;0.98;0.98;;;18.60;94.20;;;;;;5037657;28;20226;-73